Time;durP1;ratioP1;P1;durP2;ratioP2;P2;SDS_P1;SDS_P2;PMS_P1;PMS_P2;Temp;Humidity;BMP_temperature;BMP_pressure;BME280_temperature;BME280_humidity;BME280_pressure;Samples;Min_cycle;Max_cycle;Signal;HPM_P1;HPM_P2
2022/07/17 00:01:33;;;;;;;1.58;0.63;;;15.30;66.70;;;;;;5017602;28;20033;-66
2022/07/17 00:03:59;;;;;;;3.03;1.08;;;15.20;66.80;;;;;;5014960;28;20038;-66
2022/07/17 00:06:25;;;;;;;3.17;0.90;;;15.20;67.00;;;;;;5013242;28;20062;-67
2022/07/17 00:08:50;;;;;;;5.93;0.98;;;15.10;67.20;;;;;;5012333;28;20075;-67
2022/07/17 00:11:16;;;;;;;4.05;1.15;;;15.00;67.50;;;;;;5009667;28;20474;-67
2022/07/17 00:13:42;;;;;;;4.65;1.00;;;15.00;67.60;;;;;;5019557;28;20037;-67
2022/07/17 00:16:08;;;;;;;2.78;0.80;;;14.90;67.70;;;;;;5020430;28;20041;-66
2022/07/17 00:18:34;;;;;;;2.72;0.98;;;14.90;67.70;;;;;;5021830;28;20057;-67
2022/07/17 00:20:59;;;;;;;2.28;0.80;;;14.90;68.00;;;;;;5021045;28;20113;-66
2022/07/17 00:23:25;;;;;;;1.48;0.73;;;14.80;68.10;;;;;;5016677;28;20084;-67
2022/07/17 00:25:51;;;;;;;5.43;1.20;;;14.70;68.30;;;;;;5019508;28;20033;-67
2022/07/17 00:28:17;;;;;;;3.97;1.05;;;14.70;68.60;;;;;;5013021;28;20034;-67
2022/07/17 00:30:42;;;;;;;1.33;0.82;;;14.70;68.80;;;;;;5015812;28;20549;-67
2022/07/17 00:33:08;;;;;;;5.85;1.10;;;14.60;69.10;;;;;;5022244;28;20033;-66
2022/07/17 00:35:34;;;;;;;3.15;1.05;;;14.50;69.20;;;;;;5023216;28;20037;-67
2022/07/17 00:38:00;;;;;;;3.75;0.85;;;14.50;69.50;;;;;;5020334;28;20120;-68
2022/07/17 00:40:26;;;;;;;5.00;1.20;;;14.50;69.70;;;;;;5017849;28;20553;-67
2022/07/17 00:42:52;;;;;;;4.53;0.95;;;14.40;69.90;;;;;;5019131;28;20056;-67
2022/07/17 00:45:19;;;;;;;5.38;1.40;;;14.30;70.00;;;;;;5014661;28;20046;-66
2022/07/17 00:48:05;;;;;;;3.97;1.02;;;14.30;70.20;;;;;;5016359;28;20064;-67
2022/07/17 00:50:33;;;;;;;4.47;0.90;;;14.30;70.40;;;;;;5019307;28;20090;-67
2022/07/17 00:53:00;;;;;;;1.38;0.80;;;14.30;70.40;;;;;;5023065;28;20029;-67
2022/07/17 00:55:26;;;;;;;1.70;0.85;;;14.20;70.40;;;;;;5021421;28;20029;-67
2022/07/17 00:57:54;;;;;;;0.98;0.60;;;14.20;70.70;;;;;;5019863;28;20120;-67
2022/07/17 01:00:21;;;;;;;2.08;1.08;;;14.20;70.90;;;;;;5016741;28;20034;-67
2022/07/17 01:02:52;;;;;;;3.47;0.73;;;14.20;71.00;;;;;;5018232;28;20557;-67
2022/07/17 01:05:19;;;;;;;2.60;0.60;;;14.10;71.00;;;;;;5014337;28;20042;-67
2022/07/17 01:07:47;;;;;;;1.40;0.68;;;14.10;71.10;;;;;;5014782;28;20099;-67
2022/07/17 01:10:16;;;;;;;3.85;1.08;;;14.10;71.30;;;;;;5021467;28;20033;-67
2022/07/17 01:12:42;;;;;;;1.20;0.80;;;14.00;71.40;;;;;;5023951;28;20097;-68
2022/07/17 01:15:10;;;;;;;2.78;1.00;;;14.00;71.60;;;;;;5020830;28;20091;-68
2022/07/17 01:17:36;;;;;;;3.70;0.90;;;14.00;71.80;;;;;;5019055;28;20133;-67
2022/07/17 01:20:07;;;;;;;2.60;0.85;;;13.90;71.80;;;;;;5017462;28;20034;-66
2022/07/17 01:22:43;;;;;;;4.82;0.90;;;13.90;72.10;;;;;;5016244;28;20591;-66
2022/07/17 01:25:09;;;;;;;3.75;1.00;;;13.80;72.20;;;;;;5014549;28;20041;-67
2022/07/17 01:27:35;;;;;;;3.47;0.95;;;13.80;72.20;;;;;;5014195;28;20064;-67
2022/07/17 01:30:01;;;;;;;4.38;0.75;;;13.80;72.50;;;;;;5021378;28;20029;-67
2022/07/17 01:32:32;;;;;;;2.45;0.80;;;13.70;72.70;;;;;;5019581;28;20034;-67
2022/07/17 01:34:58;;;;;;;1.83;0.85;;;13.70;72.90;;;;;;5018322;28;20029;-67
2022/07/17 01:37:23;;;;;;;2.78;0.85;;;13.60;73.90;;;;;;5017598;28;20517;-67
2022/07/17 01:39:52;;;;;;;3.83;1.48;;;13.60;73.60;;;;;;5015905;28;20216;-67
2022/07/17 01:42:18;;;;;;;4.47;0.95;;;13.60;73.80;;;;;;5013365;28;20044;-66
2022/07/17 01:44:44;;;;;;;2.08;0.90;;;13.50;73.90;;;;;;5014682;28;20021;-66
2022/07/17 01:47:14;;;;;;;1.63;0.93;;;13.50;74.00;;;;;;5021644;28;20072;-67
2022/07/17 01:49:47;;;;;;;6.07;1.25;;;13.50;74.10;;;;;;5018781;28;20044;-66
2022/07/17 01:52:13;;;;;;;3.42;1.30;;;13.50;74.30;;;;;;5018369;28;20041;-67
2022/07/17 01:54:40;;;;;;;4.10;0.90;;;13.40;74.40;;;;;;5020619;28;20566;-66
2022/07/17 01:57:06;;;;;;;5.60;1.02;;;13.50;74.70;;;;;;5017531;28;20029;-67
2022/07/17 01:59:31;;;;;;;7.22;1.50;;;13.40;74.90;;;;;;5018964;28;20043;-67
2022/07/17 02:01:57;;;;;;;2.40;0.90;;;13.30;75.00;;;;;;5014500;28;20494;-67
2022/07/17 02:04:23;;;;;;;3.83;1.38;;;13.30;75.20;;;;;;5016575;28;20820;-67
2022/07/17 02:06:48;;;;;;;2.40;0.85;;;13.30;75.20;;;;;;5017265;28;20041;-68
2022/07/17 02:09:14;;;;;;;4.32;0.98;;;13.20;75.40;;;;;;5019439;28;20045;-67
2022/07/17 02:11:40;;;;;;;5.50;1.00;;;13.20;75.60;;;;;;5020096;28;20053;-67
2022/07/17 02:14:06;;;;;;;1.42;0.77;;;13.20;75.80;;;;;;5019149;28;20059;-67
2022/07/17 02:16:31;;;;;;;1.63;0.90;;;13.10;75.90;;;;;;5017651;28;20068;-67
2022/07/17 02:18:57;;;;;;;5.85;1.38;;;13.10;76.10;;;;;;5018214;28;20025;-68
2022/07/17 02:21:24;;;;;;;2.13;1.08;;;13.10;76.30;;;;;;5017058;28;20033;-67
2022/07/17 02:23:49;;;;;;;2.33;1.02;;;13.10;76.50;;;;;;5020751;28;20602;-66
2022/07/17 02:26:15;;;;;;;2.08;0.80;;;13.00;76.50;;;;;;5019771;28;20568;-66
2022/07/17 02:28:41;;;;;;;6.15;1.25;;;13.00;76.80;;;;;;5021461;28;20049;-67
2022/07/17 02:31:07;;;;;;;6.03;1.40;;;13.00;77.10;;;;;;5018138;28;20038;-67
2022/07/17 02:33:32;;;;;;;2.40;1.00;;;12.90;77.30;;;;;;5017335;28;20918;-67
2022/07/17 02:35:59;;;;;;;5.35;1.17;;;12.90;77.50;;;;;;5017060;28;20041;-67
2022/07/17 02:38:25;;;;;;;3.20;1.25;;;12.90;77.80;;;;;;5016439;28;20033;-67
2022/07/17 02:40:51;;;;;;;2.88;1.05;;;12.80;77.80;;;;;;5013053;28;20083;-67
2022/07/17 02:43:17;;;;;;;2.45;0.80;;;12.90;78.10;;;;;;5017652;28;20110;-67
2022/07/17 02:45:42;;;;;;;1.38;0.90;;;12.80;78.10;;;;;;5020801;28;20065;-67
2022/07/17 02:48:08;;;;;;;2.55;1.27;;;12.80;78.20;;;;;;5018027;28;20041;-67
2022/07/17 02:50:34;;;;;;;4.43;0.90;;;12.80;78.00;;;;;;5017170;28;20049;-67
2022/07/17 02:53:00;;;;;;;3.65;1.02;;;12.80;78.30;;;;;;5015649;28;20025;-66
2022/07/17 02:55:26;;;;;;;2.88;1.00;;;12.80;78.30;;;;;;5018250;28;20033;-66
2022/07/17 02:57:51;;;;;;;1.52;0.82;;;12.80;79.00;;;;;;5014153;28;20033;-67
2022/07/17 03:00:18;;;;;;;1.75;1.00;;;12.80;78.40;;;;;;5013484;28;20038;-66
2022/07/17 03:02:45;;;;;;;2.50;1.20;;;12.80;78.50;;;;;;5020081;28;20041;-67
2022/07/17 03:05:11;;;;;;;2.45;1.05;;;12.70;78.70;;;;;;5019651;28;20048;-67
2022/07/17 03:07:37;;;;;;;3.03;0.90;;;12.70;78.80;;;;;;5014883;28;20054;-67
2022/07/17 03:10:04;;;;;;;2.55;0.85;;;12.70;78.90;;;;;;5018256;28;20033;-67
2022/07/17 03:12:30;;;;;;;2.80;1.00;;;12.70;79.00;;;;;;5015551;28;20030;-67
2022/07/17 03:14:56;;;;;;;2.67;0.90;;;12.70;79.00;;;;;;5014487;28;20048;-67
2022/07/17 03:17:21;;;;;;;1.38;0.77;;;12.70;79.10;;;;;;5015475;28;20025;-67
2022/07/17 03:19:47;;;;;;;4.93;1.05;;;12.70;79.20;;;;;;5012533;28;20469;-67
2022/07/17 03:22:13;;;;;;;4.78;1.40;;;12.70;79.40;;;;;;5018049;28;20029;-67
2022/07/17 03:24:39;;;;;;;2.88;1.10;;;12.60;79.40;;;;;;5022618;28;20021;-67
2022/07/17 03:27:05;;;;;;;5.03;1.30;;;12.60;79.50;;;;;;5020139;28;20037;-67
2022/07/17 03:29:30;;;;;;;5.18;1.40;;;12.60;79.50;;;;;;5017711;28;20079;-67
2022/07/17 03:31:56;;;;;;;2.53;0.90;;;12.70;79.60;;;;;;5016169;28;20025;-67
2022/07/17 03:34:22;;;;;;;3.83;0.98;;;12.70;79.60;;;;;;5016394;28;20044;-67
2022/07/17 03:36:48;;;;;;;2.97;1.15;;;12.60;79.60;;;;;;5016093;28;20029;-67
2022/07/17 03:39:14;;;;;;;2.30;0.95;;;12.60;79.80;;;;;;5009946;28;20041;-67
2022/07/17 03:41:40;;;;;;;5.20;1.10;;;12.60;80.00;;;;;;5020938;28;20044;-67
2022/07/17 03:44:06;;;;;;;4.72;1.45;;;12.70;80.20;;;;;;5018590;28;20201;-67
2022/07/17 03:46:34;;;;;;;5.25;1.30;;;12.70;80.80;;;;;;5018901;28;20037;-67
2022/07/17 03:49:00;;;;;;;2.92;1.23;;;12.70;80.30;;;;;;5016283;28;20125;-67
2022/07/17 03:51:26;;;;;;;5.18;1.30;;;12.70;80.40;;;;;;5019340;28;20064;-67
2022/07/17 03:53:51;;;;;;;4.55;1.17;;;12.70;80.60;;;;;;5018105;28;20021;-67
2022/07/17 03:56:18;;;;;;;2.92;1.05;;;12.80;80.80;;;;;;5020098;28;20478;-66
2022/07/17 03:58:44;;;;;;;4.45;1.10;;;12.80;81.00;;;;;;5015627;28;20068;-66
2022/07/17 04:01:10;;;;;;;4.35;1.20;;;12.80;80.90;;;;;;5023648;28;20064;-67
2022/07/17 04:03:35;;;;;;;5.38;1.40;;;12.90;80.80;;;;;;5026486;28;20180;-67
2022/07/17 04:06:02;;;;;;;3.20;1.23;;;12.90;80.70;;;;;;5022456;28;20556;-67
2022/07/17 04:08:28;;;;;;;2.90;1.05;;;12.90;80.60;;;;;;5020105;28;20092;-66
2022/07/17 04:10:53;;;;;;;3.53;1.27;;;13.00;80.70;;;;;;5018270;28;20692;-67
2022/07/17 04:13:19;;;;;;;4.35;1.20;;;13.00;80.80;;;;;;5015574;28;20117;-67
2022/07/17 04:15:59;;;;;;;5.82;1.40;;;13.00;80.80;;;;;;5015986;28;20058;-67
2022/07/17 04:18:30;;;;;;;6.28;1.40;;;13.00;80.70;;;;;;5018348;28;20120;-67
2022/07/17 04:20:59;;;;;;;3.80;1.23;;;13.10;80.60;;;;;;5023343;28;20035;-67
2022/07/17 04:23:26;;;;;;;4.70;1.27;;;13.10;80.70;;;;;;5020168;28;20132;-67
2022/07/17 04:25:53;;;;;;;3.05;0.95;;;13.10;80.60;;;;;;5022255;28;20029;-67
2022/07/17 04:28:19;;;;;;;5.38;1.48;;;13.20;80.70;;;;;;5018450;28;20056;-66
2022/07/17 04:30:45;;;;;;;3.72;1.48;;;13.20;80.30;;;;;;5020386;28;20961;-67
2022/07/17 04:33:11;;;;;;;2.72;1.13;;;13.30;80.30;;;;;;5013777;28;20091;-67
2022/07/17 04:35:37;;;;;;;2.10;1.08;;;13.40;80.30;;;;;;5019306;28;20033;-66
2022/07/17 04:38:05;;;;;;;3.28;1.65;;;13.40;80.00;;;;;;5018608;28;20568;-67
2022/07/17 04:40:31;;;;;;;3.38;1.25;;;13.50;79.90;;;;;;5022188;28;20044;-67
2022/07/17 04:42:57;;;;;;;2.63;1.20;;;13.50;79.70;;;;;;5021051;28;20068;-67
2022/07/17 04:45:23;;;;;;;6.45;1.50;;;13.50;79.70;;;;;;5017981;28;20957;-67
2022/07/17 04:47:48;;;;;;;2.47;1.55;;;13.60;79.80;;;;;;5018416;28;20042;-67
2022/07/17 04:50:14;;;;;;;2.50;1.00;;;13.60;79.60;;;;;;5014416;28;20022;-67
2022/07/17 04:52:40;;;;;;;2.97;1.05;;;13.60;79.70;;;;;;5017149;28;20042;-67
2022/07/17 04:55:06;;;;;;;4.88;1.50;;;13.60;79.70;;;;;;5015637;28;20029;-67
2022/07/17 04:57:32;;;;;;;5.25;1.33;;;13.70;79.60;;;;;;5022640;28;20549;-66
2022/07/17 04:59:58;;;;;;;7.07;1.42;;;13.70;79.60;;;;;;5021897;28;20140;-67
2022/07/17 05:02:24;;;;;;;5.60;1.38;;;13.80;79.70;;;;;;5019026;28;20365;-67
2022/07/17 05:04:50;;;;;;;3.72;1.50;;;13.80;79.70;;;;;;5019454;28;20091;-66
2022/07/17 05:07:16;;;;;;;5.00;1.10;;;13.80;79.70;;;;;;5015560;28;20040;-66
2022/07/17 05:09:41;;;;;;;6.30;1.40;;;13.90;79.70;;;;;;5021034;28;20730;-66
2022/07/17 05:12:08;;;;;;;6.30;1.50;;;13.90;79.50;;;;;;5014166;28;20041;-66
2022/07/17 05:14:34;;;;;;;7.07;1.70;;;14.00;79.50;;;;;;5019209;28;20478;-66
2022/07/17 05:17:01;;;;;;;10.57;1.63;;;14.00;79.60;;;;;;5021172;28;20829;-66
2022/07/17 05:19:26;;;;;;;3.88;1.50;;;14.10;79.60;;;;;;5019494;28;20065;-66
2022/07/17 05:21:52;;;;;;;3.45;1.08;;;14.20;79.70;;;;;;5020227;28;20053;-66
2022/07/17 05:24:18;;;;;;;4.55;1.73;;;14.20;79.40;;;;;;5018076;28;20750;-66
2022/07/17 05:26:44;;;;;;;2.95;1.23;;;14.30;79.40;;;;;;5017190;28;20030;-66
2022/07/17 05:29:09;;;;;;;8.95;1.38;;;14.40;79.20;;;;;;5013234;28;20060;-66
2022/07/17 05:31:35;;;;;;;5.93;1.48;;;14.50;78.60;;;;;;5015091;28;20030;-66
2022/07/17 05:34:01;;;;;;;5.07;1.17;;;14.60;78.30;;;;;;5018301;28;20042;-65
2022/07/17 05:36:27;;;;;;;4.18;1.17;;;14.80;78.10;;;;;;5022925;28;20030;-67
2022/07/17 05:38:53;;;;;;;4.30;1.20;;;14.90;77.80;;;;;;5020955;28;20044;-64
2022/07/17 05:41:18;;;;;;;4.00;1.38;;;15.00;77.50;;;;;;5016580;28;20034;-65
2022/07/17 05:43:44;;;;;;;3.53;1.30;;;15.10;77.60;;;;;;5017922;28;20045;-65
2022/07/17 05:46:10;;;;;;;2.75;0.88;;;15.30;77.00;;;;;;5013640;28;20042;-65
2022/07/17 05:48:36;;;;;;;14.43;5.50;;;15.50;76.20;;;;;;5018230;28;20707;-82
2022/07/17 05:51:01;;;;;;;29.95;15.20;;;15.60;76.40;;;;;;5021890;28;20029;-81
2022/07/17 05:53:27;;;;;;;17.27;9.45;;;15.80;75.40;;;;;;5021385;28;20164;-79
2022/07/17 05:55:53;;;;;;;15.80;5.55;;;16.30;74.20;;;;;;5020678;28;20139;-73
2022/07/17 05:58:19;;;;;;;5.78;2.60;;;16.80;72.60;;;;;;5017488;28;20048;-86
2022/07/17 06:00:45;;;;;;;6.40;2.60;;;17.30;70.10;;;;;;5020775;28;20037;-79
2022/07/17 06:03:11;;;;;;;7.68;2.40;;;17.50;69.30;;;;;;5015686;28;20152;-78
2022/07/17 06:05:37;;;;;;;7.00;2.03;;;17.80;69.10;;;;;;5014793;28;20064;-79
2022/07/17 06:08:03;;;;;;;7.13;2.28;;;18.00;68.40;;;;;;5022088;28;20528;-79
2022/07/17 06:10:29;;;;;;;5.40;1.98;;;18.20;67.50;;;;;;5022617;28;20087;-79
2022/07/17 06:12:56;;;;;;;6.63;1.60;;;18.30;66.80;;;;;;4999948;28;20033;-80
2022/07/17 06:15:22;;;;;;;9.90;1.30;;;18.40;65.60;;;;;;5021154;28;20052;-73
2022/07/17 06:17:48;;;;;;;8.32;1.70;;;18.50;66.00;;;;;;5018610;28;20025;-71
2022/07/17 06:20:15;;;;;;;7.72;1.33;;;18.70;65.70;;;;;;5018539;28;20029;-72
2022/07/17 06:22:41;;;;;;;1.90;1.10;;;18.90;65.10;;;;;;5019951;28;20025;-72
2022/07/17 06:25:08;;;;;;;7.80;1.60;;;19.10;64.40;;;;;;5014447;28;20045;-75
2022/07/17 06:27:34;;;;;;;6.45;1.35;;;19.20;64.30;;;;;;5013553;28;20030;-73
2022/07/17 06:30:01;;;;;;;7.90;1.50;;;19.30;65.10;;;;;;5013786;28;20789;-76
2022/07/17 06:32:26;;;;;;;7.60;1.70;;;19.50;63.60;;;;;;5019101;28;20389;-73
2022/07/17 06:34:53;;;;;;;6.75;2.22;;;19.60;62.10;;;;;;5019413;28;20037;-73
2022/07/17 06:37:19;;;;;;;4.85;1.95;;;19.50;60.60;;;;;;5015342;28;20081;-73
2022/07/17 06:39:44;;;;;;;13.60;3.42;;;19.50;61.20;;;;;;5011470;28;20032;-72
2022/07/17 06:42:10;;;;;;;7.20;1.88;;;19.50;62.10;;;;;;5015286;28;20061;-71
2022/07/17 06:44:37;;;;;;;6.45;1.33;;;19.50;61.30;;;;;;5013870;28;20083;-71
2022/07/17 06:47:03;;;;;;;8.20;1.65;;;19.50;61.10;;;;;;5008182;28;20037;-73
2022/07/17 06:49:29;;;;;;;8.07;1.48;;;19.50;61.40;;;;;;5015445;28;20030;-73
2022/07/17 06:51:55;;;;;;;6.65;1.65;;;19.50;61.40;;;;;;5019104;28;20033;-73
2022/07/17 06:54:23;;;;;;;3.97;1.40;;;19.50;61.60;;;;;;5018159;28;20033;-74
2022/07/17 06:56:50;;;;;;;10.88;3.08;;;19.50;61.60;;;;;;5019796;28;20040;-76
2022/07/17 06:59:16;;;;;;;9.45;1.75;;;19.50;61.50;;;;;;5015409;28;20029;-75
2022/07/17 07:01:41;;;;;;;9.48;2.67;;;19.50;61.40;;;;;;5017826;28;20110;-75
2022/07/17 07:04:07;;;;;;;5.93;1.90;;;19.50;61.20;;;;;;5013253;28;20555;-72
2022/07/17 07:06:33;;;;;;;5.72;1.40;;;19.50;61.40;;;;;;5018073;28;20041;-75
2022/07/17 07:08:59;;;;;;;5.57;1.65;;;19.50;61.20;;;;;;5019662;28;20144;-75
2022/07/17 07:11:25;;;;;;;8.82;1.88;;;19.50;61.30;;;;;;5017579;28;20034;-75
2022/07/17 07:13:51;;;;;;;5.40;1.67;;;19.50;61.10;;;;;;5019399;28;20387;-74
2022/07/17 07:16:17;;;;;;;10.30;2.63;;;19.60;60.70;;;;;;5014437;28;20811;-75
2022/07/17 07:18:42;;;;;;;5.15;1.58;;;19.60;61.10;;;;;;5014970;28;20618;-74
2022/07/17 07:21:08;;;;;;;7.90;1.35;;;19.50;60.60;;;;;;5014817;28;20029;-75
2022/07/17 07:23:34;;;;;;;9.05;2.22;;;19.60;60.00;;;;;;5013347;28;20631;-74
2022/07/17 07:26:00;;;;;;;5.55;1.30;;;19.70;60.30;;;;;;5017979;28;20061;-73
2022/07/17 07:28:25;;;;;;;6.55;1.90;;;19.70;60.20;;;;;;5023133;28;20114;-72
2022/07/17 07:30:51;;;;;;;4.07;1.20;;;19.80;60.20;;;;;;5023219;28;20030;-76
2022/07/17 07:33:17;;;;;;;6.40;1.73;;;20.00;59.50;;;;;;5021170;28;20568;-76
2022/07/17 07:35:43;;;;;;;4.38;1.50;;;20.10;59.30;;;;;;5020921;28;20030;-76
2022/07/17 07:38:09;;;;;;;7.07;1.85;;;20.10;59.20;;;;;;5019289;28;20414;-76
2022/07/17 07:40:36;;;;;;;5.90;1.30;;;20.20;58.60;;;;;;5018122;28;20051;-76
2022/07/17 07:43:02;;;;;;;5.85;1.35;;;20.20;58.80;;;;;;5014720;28;20536;-77
2022/07/17 07:45:28;;;;;;;9.43;1.50;;;20.30;58.70;;;;;;5020323;28;20452;-76
2022/07/17 07:47:54;;;;;;;3.95;0.90;;;20.30;58.60;;;;;;5024858;28;20140;-77
2022/07/17 07:50:23;;;;;;;1.25;0.75;;;20.20;58.40;;;;;;5026541;28;20030;-77
2022/07/17 07:52:50;;;;;;;8.27;1.45;;;20.10;58.30;;;;;;5025042;28;20477;-77
2022/07/17 07:55:16;;;;;;;4.63;1.00;;;20.10;58.10;;;;;;5023205;28;20037;-77
2022/07/17 07:57:42;;;;;;;3.80;1.00;;;20.20;57.80;;;;;;5024810;28;20045;-77
2022/07/17 08:00:11;;;;;;;3.47;1.17;;;20.30;57.60;;;;;;5018129;28;20103;-74
2022/07/17 08:02:40;;;;;;;4.68;1.23;;;20.30;57.00;;;;;;5016565;28;20025;-74
2022/07/17 08:05:07;;;;;;;5.90;1.20;;;20.40;56.30;;;;;;5019991;28;20489;-74
2022/07/17 08:07:34;;;;;;;4.70;1.25;;;20.40;56.80;;;;;;5021912;28;20033;-74
2022/07/17 08:10:00;;;;;;;3.40;1.00;;;20.40;56.00;;;;;;5017995;28;20413;-74
2022/07/17 08:12:26;;;;;;;8.32;1.50;;;20.40;56.30;;;;;;5018220;28;20033;-74
2022/07/17 08:15:02;;;;;;;4.88;1.50;;;20.50;55.90;;;;;;5020141;28;20026;-66
2022/07/17 08:17:30;;;;;;;7.47;1.67;;;20.50;56.90;;;;;;5011194;28;20193;-66
2022/07/17 08:19:56;;;;;;;4.15;1.02;;;20.60;55.80;;;;;;5011414;28;20486;-65
2022/07/17 08:22:22;;;;;;;4.78;1.17;;;20.60;55.90;;;;;;5009815;28;20038;-66
2022/07/17 08:24:47;;;;;;;4.70;1.10;;;20.70;56.40;;;;;;5019636;28;20025;-66
2022/07/17 08:27:13;;;;;;;3.25;1.00;;;20.60;55.80;;;;;;5016202;28;20080;-65
2022/07/17 08:29:39;;;;;;;3.15;1.10;;;20.60;56.00;;;;;;5018700;28;20034;-65
2022/07/17 08:32:05;;;;;;;5.05;0.82;;;20.50;56.20;;;;;;5018449;28;20086;-65
2022/07/17 08:34:31;;;;;;;11.13;1.17;;;20.50;56.20;;;;;;5018469;28;20707;-66
2022/07/17 08:36:56;;;;;;;6.15;1.27;;;20.40;56.30;;;;;;5015966;28;20028;-66
2022/07/17 08:39:22;;;;;;;4.40;1.08;;;20.40;56.40;;;;;;5015262;28;20030;-65
2022/07/17 08:41:48;;;;;;;5.07;1.52;;;20.30;56.70;;;;;;5016688;28;20760;-65
2022/07/17 08:44:14;;;;;;;5.68;1.30;;;20.30;57.00;;;;;;5022394;28;20034;-65
2022/07/17 08:46:39;;;;;;;3.25;1.08;;;20.20;57.20;;;;;;5021757;28;20630;-65
2022/07/17 08:49:07;;;;;;;4.35;1.17;;;20.20;57.60;;;;;;5020172;28;20029;-65
2022/07/17 08:51:34;;;;;;;4.88;1.23;;;20.10;56.90;;;;;;5019518;28;20076;-65
2022/07/17 08:54:00;;;;;;;6.47;1.30;;;20.00;56.90;;;;;;5017097;28;20413;-66
2022/07/17 08:56:27;;;;;;;7.13;1.10;;;20.10;57.20;;;;;;5017292;28;20041;-65
2022/07/17 08:58:55;;;;;;;8.07;1.73;;;20.10;57.40;;;;;;5014160;28;20702;-65
2022/07/17 09:01:21;;;;;;;8.75;1.20;;;20.30;56.60;;;;;;5016098;28;20045;-65
2022/07/17 09:04:00;;;;;;;5.13;1.30;;;20.40;55.40;;;;;;5021496;28;20033;-65
2022/07/17 09:06:26;;;;;;;5.07;1.38;;;20.60;55.10;;;;;;5019059;28;20129;-65
2022/07/17 09:09:09;;;;;;;3.67;1.25;;;20.80;55.00;;;;;;5019078;28;20120;-66
2022/07/17 09:11:45;;;;;;;2.38;1.02;;;20.90;54.60;;;;;;5019346;28;20026;-65
2022/07/17 09:14:11;;;;;;;9.27;1.48;;;20.90;54.30;;;;;;5013556;28;20072;-65
2022/07/17 09:16:52;;;;;;;5.63;1.40;;;21.00;55.00;;;;;;5020876;28;20080;-66
2022/07/17 09:19:30;;;;;;;3.70;1.20;;;21.00;53.30;;;;;;5016016;28;20033;-66
2022/07/17 09:22:13;;;;;;;3.47;1.10;;;21.00;54.50;;;;;;5021165;28;20037;-65
2022/07/17 09:24:48;;;;;;;8.73;1.67;;;21.00;53.50;;;;;;5018634;28;20540;-65
2022/07/17 09:27:28;;;;;;;4.70;1.45;;;21.10;53.60;;;;;;5016985;28;20045;-65
2022/07/17 09:29:58;;;;;;;6.93;1.70;;;21.20;54.20;;;;;;5016295;28;20557;-65
2022/07/17 09:32:26;;;;;;;3.70;1.05;;;21.30;53.20;;;;;;5015204;28;20869;-65
2022/07/17 09:34:55;;;;;;;3.78;1.30;;;21.50;53.20;;;;;;5014711;28;20088;-65
2022/07/17 09:37:25;;;;;;;4.97;1.17;;;21.60;53.10;;;;;;5011649;28;20506;-65
2022/07/17 09:39:53;;;;;;;3.60;1.02;;;21.70;52.50;;;;;;5021836;28;20065;-65
2022/07/17 09:42:26;;;;;;;4.80;1.23;;;21.70;51.90;;;;;;5020298;28;20026;-65
2022/07/17 09:45:07;;;;;;;4.57;1.30;;;21.70;52.10;;;;;;5019573;28;20041;-66
2022/07/17 09:47:36;;;;;;;3.97;1.40;;;21.70;52.40;;;;;;5016523;28;20488;-65
2022/07/17 09:50:04;;;;;;;6.32;1.40;;;21.70;52.60;;;;;;5015897;28;20042;-65
2022/07/17 09:52:32;;;;;;;5.95;1.05;;;21.60;52.80;;;;;;5018425;28;20044;-65
2022/07/17 09:55:00;;;;;;;6.85;1.40;;;21.60;52.90;;;;;;5012935;28;20025;-65
2022/07/17 09:57:29;;;;;;;2.97;1.15;;;21.60;52.40;;;;;;5016585;28;20559;-65
2022/07/17 09:59:58;;;;;;;5.88;1.30;;;21.60;52.20;;;;;;5021189;28;20037;-65
2022/07/17 10:02:24;;;;;;;4.28;1.10;;;21.60;52.30;;;;;;5019623;28;20048;-66
2022/07/17 10:04:51;;;;;;;9.43;1.35;;;21.60;52.70;;;;;;5021005;28;20037;-65
2022/07/17 10:07:18;;;;;;;5.43;1.33;;;21.70;52.10;;;;;;5017297;28;20044;-65
2022/07/17 10:09:45;;;;;;;4.85;1.15;;;21.70;52.10;;;;;;5018755;28;20030;-65
2022/07/17 10:12:11;;;;;;;3.33;1.23;;;21.80;52.10;;;;;;5012904;28;20057;-65
2022/07/17 10:14:40;;;;;;;9.07;1.60;;;21.70;52.50;;;;;;5014326;28;20802;-65
2022/07/17 10:17:08;;;;;;;5.60;1.00;;;21.80;52.30;;;;;;5016687;28;20034;-65
2022/07/17 10:19:43;;;;;;;5.82;1.05;;;21.90;52.50;;;;;;5016797;28;20087;-66
2022/07/17 10:22:09;;;;;;;3.67;1.15;;;22.00;52.50;;;;;;5017734;28;20041;-65
2022/07/17 10:24:49;;;;;;;4.70;1.50;;;22.00;51.90;;;;;;5019262;28;20120;-65
2022/07/17 10:27:27;;;;;;;3.78;1.00;;;22.20;51.30;;;;;;5013828;28;20042;-65
2022/07/17 10:30:09;;;;;;;5.43;1.30;;;22.20;52.00;;;;;;5014664;28;20557;-66
2022/07/17 10:32:36;;;;;;;5.68;1.20;;;22.40;51.10;;;;;;5013947;28;20036;-65
2022/07/17 10:35:06;;;;;;;4.45;1.35;;;22.30;50.80;;;;;;5014005;28;20017;-66
2022/07/17 10:37:34;;;;;;;6.65;1.45;;;22.30;50.50;;;;;;5019572;28;20056;-66
2022/07/17 10:40:21;;;;;;;4.25;1.15;;;22.30;51.60;;;;;;5017421;28;20052;-66
2022/07/17 10:43:01;;;;;;;5.32;1.30;;;22.10;52.10;;;;;;5017585;28;20091;-65
2022/07/17 10:45:44;;;;;;;7.13;1.10;;;22.00;51.60;;;;;;5016453;28;20041;-65
2022/07/17 10:48:13;;;;;;;6.80;1.73;;;22.00;52.10;;;;;;5013079;28;20048;-65
2022/07/17 10:50:46;;;;;;;10.27;2.42;;;22.00;52.20;;;;;;5015077;28;20030;-66
2022/07/17 10:53:20;;;;;;;4.63;1.20;;;22.10;52.10;;;;;;5011053;28;20034;-65
2022/07/17 10:55:48;;;;;;;2.83;1.15;;;22.10;50.70;;;;;;5021518;28;20594;-65
2022/07/17 10:58:20;;;;;;;6.53;1.10;;;22.10;51.40;;;;;;5016964;28;20041;-65
2022/07/17 11:01:13;;;;;;;4.93;1.17;;;22.20;51.30;;;;;;5018305;28;20048;-66
2022/07/17 11:03:41;;;;;;;5.15;1.33;;;22.40;50.60;;;;;;5011274;28;20037;-66
2022/07/17 11:06:12;;;;;;;8.55;1.35;;;22.60;49.80;;;;;;5017529;28;20069;-66
2022/07/17 11:08:47;;;;;;;5.07;1.55;;;22.70;48.80;;;;;;5017026;28;20041;-65
2022/07/17 11:11:17;;;;;;;4.45;1.30;;;22.70;49.50;;;;;;5010549;28;20756;-66
2022/07/17 11:13:43;;;;;;;3.80;1.20;;;22.60;48.70;;;;;;5017390;28;20033;-66
2022/07/17 11:16:09;;;;;;;4.18;1.20;;;22.60;49.00;;;;;;5017927;28;20080;-66
2022/07/17 11:18:36;;;;;;;4.50;1.20;;;22.50;48.90;;;;;;5020002;28;20041;-66
2022/07/17 11:21:04;;;;;;;3.20;1.10;;;22.50;48.60;;;;;;5017479;28;20095;-66
2022/07/17 11:23:33;;;;;;;7.55;1.38;;;22.50;49.20;;;;;;5016182;28;20037;-65
2022/07/17 11:26:05;;;;;;;4.75;1.25;;;22.60;49.30;;;;;;5015682;28;20037;-65
2022/07/17 11:28:34;;;;;;;4.32;1.00;;;22.70;48.80;;;;;;5013193;28;20058;-65
2022/07/17 11:31:01;;;;;;;4.05;1.20;;;22.70;48.10;;;;;;5013450;28;20026;-65
2022/07/17 11:33:27;;;;;;;5.22;1.58;;;22.70;48.40;;;;;;5020240;28;20037;-66
2022/07/17 11:35:56;;;;;;;4.60;1.25;;;22.60;49.00;;;;;;5019464;28;20390;-66
2022/07/17 11:38:27;;;;;;;4.43;1.05;;;22.60;49.70;;;;;;5015868;28;20874;-66
2022/07/17 11:40:53;;;;;;;3.20;1.20;;;22.70;49.70;;;;;;5014590;28;20056;-66
2022/07/17 11:43:19;;;;;;;4.47;1.27;;;22.80;48.50;;;;;;5013423;28;20040;-66
2022/07/17 11:45:46;;;;;;;4.75;1.25;;;22.90;48.90;;;;;;5013928;28;20033;-66
2022/07/17 11:48:12;;;;;;;5.47;1.10;;;23.00;48.60;;;;;;5009763;28;20034;-66
2022/07/17 11:50:38;;;;;;;3.13;1.02;;;23.00;48.00;;;;;;5016629;28;20355;-65
2022/07/17 11:53:05;;;;;;;9.40;1.67;;;23.00;48.30;;;;;;5016065;28;20026;-65
2022/07/17 11:55:38;;;;;;;8.93;1.30;;;23.10;48.30;;;;;;5018784;28;20120;-66
2022/07/17 11:58:04;;;;;;;7.45;1.40;;;23.10;48.70;;;;;;5014301;28;20087;-65
2022/07/17 12:00:31;;;;;;;5.05;1.25;;;23.20;48.10;;;;;;5015943;28;20041;-65
2022/07/17 12:03:01;;;;;;;4.45;1.25;;;23.30;48.10;;;;;;5014486;28;20022;-66
2022/07/17 12:05:29;;;;;;;5.82;1.08;;;23.40;48.00;;;;;;5013152;28;20049;-65
2022/07/17 12:07:55;;;;;;;4.65;1.30;;;23.40;47.90;;;;;;5011259;28;20043;-66
2022/07/17 12:10:24;;;;;;;3.75;0.95;;;23.40;48.60;;;;;;5016065;28;20030;-65
2022/07/17 12:13:05;;;;;;;4.95;1.30;;;23.50;47.70;;;;;;5022558;28;20022;-66
2022/07/17 12:15:35;;;;;;;2.20;1.00;;;23.50;47.10;;;;;;5020468;28;20042;-66
2022/07/17 12:18:02;;;;;;;4.65;1.02;;;23.50;47.00;;;;;;5014935;28;20115;-66
2022/07/17 12:20:41;;;;;;;3.17;1.20;;;23.50;46.20;;;;;;5021934;28;20402;-66
2022/07/17 12:23:06;;;;;;;4.25;1.15;;;23.50;47.00;;;;;;5020753;28;20503;-64
2022/07/17 12:25:32;;;;;;;3.38;1.20;;;23.50;46.50;;;;;;5023771;28;20052;-65
2022/07/17 12:27:58;;;;;;;5.10;1.27;;;23.50;46.90;;;;;;5018122;28;20108;-65
2022/07/17 12:30:24;;;;;;;5.47;1.30;;;23.50;46.60;;;;;;5022602;28;20033;-65
2022/07/17 12:32:49;;;;;;;11.80;1.42;;;23.60;47.10;;;;;;5017777;28;20097;-65
2022/07/17 12:35:15;;;;;;;6.50;1.00;;;23.70;46.50;;;;;;5018885;28;20560;-66
2022/07/17 12:37:41;;;;;;;4.30;1.02;;;23.70;45.30;;;;;;5021397;28;20634;-65
2022/07/17 12:40:08;;;;;;;4.22;1.00;;;23.70;44.40;;;;;;5018503;28;20026;-65
2022/07/17 12:42:34;;;;;;;3.90;1.20;;;23.70;44.40;;;;;;5017765;28;20148;-65
2022/07/17 12:45:01;;;;;;;7.10;1.20;;;23.90;43.70;;;;;;5019990;28;20147;-65
2022/07/17 12:47:27;;;;;;;3.67;0.93;;;23.90;44.10;;;;;;5019367;28;20740;-65